« Back
NWS Peachtree City, Ga » Text Product » MCN Terminal Aerodrome Forecast


Printer-friendly Version
Current Version              Previous Versions:   1  2  3  4  5  6  7  8  9  

Terminal Aerodrome Forecast

166
FTUS42 KFFC 071727
TAFMCN
TAF
KMCN 071727Z 0718/0818 27005KT P6SM SCT050
     FM080000 26005KT P6SM FEW150
     FM080200 00000KT P6SM SKC
     FM081600 27006KT P6SM FEW050=

USA.gov is the U.S. government's official web portal to all federal, state and local government web resources and services.